PWSweather.com
Personal Weather Stations
Station Observations
270882
Flassian, LimouxFR 11300

FlassianLimouxFR 11300

Lat: 43.071798, Lon: 2.217292

Elevation: 165

Station Type: Oregon WMR 200

http://www.meteolimoux.fr

High Low Average
Temperature 72.9°F22.7°C 55.6°F13.1°C 62.7°F17.1°C
Dew Point 59.9°F15.5°C 52.7°F11.5°C 56.3°F13.5°C
Winds 7.6 mph 12.2 kmh Calm Calm 2.0 mph NE3.2 kmh NE
Wind Gusts 12.3 mph19.8 kmh -- 3.0 mph4.8 kmh
Humidity 92% 58% 81%
Pressure 30.10 in1019.3 mb 29.96 in1014.6 mb -
Precipitation 0.00 in0.0 mm - -
Hour Temp Dew Point Humidity Winds Wind Gusts Pressure Precip Precip Rate Daily Precip Total
12:02 AM 57.4°F14.1°C 54.5°F12.5°C 90% Calm Calm -- 29.99 in1015.6 mb - 0.00 in0.0 mm 0.00 in0.0 mm
12:07 AM 57.4°F14.1°C 54.5°F12.5°C 90% Calm Calm -- 29.99 in1015.6 mb - 0.00 in0.0 mm 0.00 in0.0 mm
12:12 AM 57.4°F14.1°C 54.5°F12.5°C 90% Calm Calm -- 29.99 in1015.6 mb - 0.00 in0.0 mm 0.00 in0.0 mm
12:17 AM 57.4°F14.1°C 54.5°F12.5°C 90% Calm Calm -- 29.99 in1015.6 mb - 0.00 in0.0 mm 0.00 in0.0 mm
12:22 AM 57.4°F14.1°C 54.5°F12.5°C 90% Calm Calm -- 29.99 in1015.6 mb - 0.00 in0.0 mm 0.00 in0.0 mm
12:27 AM 57.4°F14.1°C 54.5°F12.5°C 90% Calm Calm -- 29.99 in1015.6 mb - 0.00 in0.0 mm 0.00 in0.0 mm
12:32 AM 57.4°F14.1°C 54.5°F12.5°C 90% Calm Calm -- 29.99 in1015.6 mb - 0.00 in0.0 mm 0.00 in0.0 mm
12:37 AM 57.4°F14.1°C 54.5°F12.5°C 90% Calm Calm -- 29.96 in1014.6 mb - 0.00 in0.0 mm 0.00 in0.0 mm
12:42 AM 57.4°F14.1°C 54.5°F12.5°C 90% Calm Calm -- 29.96 in1014.6 mb - 0.00 in0.0 mm 0.00 in0.0 mm
12:47 AM 57.4°F14.1°C 54.5°F12.5°C 90% Calm Calm 1.1 mph1.8 kmh 29.96 in1014.6 mb - 0.00 in0.0 mm 0.00 in0.0 mm
12:52 AM 57.4°F14.1°C 54.5°F12.5°C 90% Calm Calm -- 29.99 in1015.6 mb - 0.00 in0.0 mm 0.00 in0.0 mm
12:57 AM 57.4°F14.1°C 54.5°F12.5°C 90% Calm Calm -- 29.99 in1015.6 mb - 0.00 in0.0 mm 0.00 in0.0 mm
01:02 AM 57.2°F14.0°C 54.3°F12.4°C 90% Calm Calm -- 29.99 in1015.6 mb - 0.00 in0.0 mm 0.00 in0.0 mm
01:07 AM 57.0°F13.9°C 54.1°F12.3°C 90% Calm Calm -- 29.99 in1015.6 mb - 0.00 in0.0 mm 0.00 in0.0 mm
01:12 AM 56.8°F13.8°C 54.0°F12.2°C 90% Calm Calm -- 29.99 in1015.6 mb - 0.00 in0.0 mm 0.00 in0.0 mm
01:17 AM 56.7°F13.7°C 53.8°F12.1°C 90% Calm Calm -- 29.99 in1015.6 mb - 0.00 in0.0 mm 0.00 in0.0 mm
01:22 AM 56.7°F13.7°C 53.8°F12.1°C 90% Calm Calm -- 29.99 in1015.6 mb - 0.00 in0.0 mm 0.00 in0.0 mm
01:27 AM 56.5°F13.6°C 53.6°F12.0°C 90% Calm Calm -- 29.99 in1015.6 mb - 0.00 in0.0 mm 0.00 in0.0 mm
01:32 AM 56.5°F13.6°C 53.6°F12.0°C 90% Calm Calm -- 29.99 in1015.6 mb - 0.00 in0.0 mm 0.00 in0.0 mm
01:37 AM 56.3°F13.5°C 53.4°F11.9°C 90% Calm Calm -- 29.99 in1015.6 mb - 0.00 in0.0 mm 0.00 in0.0 mm
01:42 AM 56.3°F13.5°C 53.4°F11.9°C 90% Calm Calm -- 29.99 in1015.6 mb - 0.00 in0.0 mm 0.00 in0.0 mm
01:47 AM 56.3°F13.5°C 53.4°F11.9°C 90% Calm Calm 1.1 mph1.8 kmh 29.99 in1015.6 mb - 0.00 in0.0 mm 0.00 in0.0 mm
01:52 AM 56.3°F13.5°C 53.4°F11.9°C 90% 1.1 mph SW1.8 kmh SW 2.5 mph4.0 kmh 29.96 in1014.6 mb - 0.00 in0.0 mm 0.00 in0.0 mm
01:57 AM 56.3°F13.5°C 53.4°F11.9°C 90% 0.4 mph SW0.6 kmh SW 2.7 mph4.3 kmh 29.96 in1014.6 mb - 0.00 in0.0 mm 0.00 in0.0 mm
02:02 AM 56.5°F13.6°C 53.6°F12.0°C 90% Calm Calm -- 29.96 in1014.6 mb - 0.00 in0.0 mm 0.00 in0.0 mm
02:07 AM 56.5°F13.6°C 53.6°F12.0°C 90% Calm Calm -- 29.99 in1015.6 mb - 0.00 in0.0 mm 0.00 in0.0 mm
02:12 AM 56.3°F13.5°C 53.4°F11.9°C 90% Calm Calm -- 29.99 in1015.6 mb - 0.00 in0.0 mm 0.00 in0.0 mm
02:17 AM 56.3°F13.5°C 53.4°F11.9°C 90% Calm Calm -- 29.99 in1015.6 mb - 0.00 in0.0 mm 0.00 in0.0 mm
02:22 AM 56.3°F13.5°C 53.4°F11.9°C 90% Calm Calm -- 29.99 in1015.6 mb - 0.00 in0.0 mm 0.00 in0.0 mm
02:27 AM 56.3°F13.5°C 53.4°F11.9°C 90% Calm Calm -- 29.99 in1015.6 mb - 0.00 in0.0 mm 0.00 in0.0 mm
02:32 AM 56.1°F13.4°C 53.2°F11.8°C 90% Calm Calm -- 29.99 in1015.6 mb - 0.00 in0.0 mm 0.00 in0.0 mm
02:37 AM 56.1°F13.4°C 53.2°F11.8°C 90% Calm Calm -- 29.99 in1015.6 mb - 0.00 in0.0 mm 0.00 in0.0 mm
02:42 AM 55.9°F13.3°C 53.1°F11.7°C 90% Calm Calm -- 29.99 in1015.6 mb - 0.00 in0.0 mm 0.00 in0.0 mm
02:47 AM 55.9°F13.3°C 53.1°F11.7°C 90% Calm Calm -- 29.99 in1015.6 mb - 0.00 in0.0 mm 0.00 in0.0 mm
02:52 AM 55.8°F13.2°C 52.9°F11.6°C 90% Calm Calm -- 29.99 in1015.6 mb - 0.00 in0.0 mm 0.00 in0.0 mm
02:57 AM 55.6°F13.1°C 52.7°F11.5°C 90% Calm Calm -- 29.99 in1015.6 mb - 0.00 in0.0 mm 0.00 in0.0 mm
03:02 AM 55.6°F13.1°C 52.7°F11.5°C 90% Calm Calm -- 29.99 in1015.6 mb - 0.00 in0.0 mm 0.00 in0.0 mm
03:07 AM 55.6°F13.1°C 52.7°F11.5°C 90% Calm Calm -- 29.99 in1015.6 mb - 0.00 in0.0 mm 0.00 in0.0 mm
03:12 AM 55.6°F13.1°C 52.7°F11.5°C 90% Calm Calm -- 29.99 in1015.6 mb - 0.00 in0.0 mm 0.00 in0.0 mm
03:17 AM 55.6°F13.1°C 53.1°F11.7°C 91% Calm Calm -- 29.99 in1015.6 mb - 0.00 in0.0 mm 0.00 in0.0 mm
03:22 AM 55.6°F13.1°C 53.1°F11.7°C 91% Calm Calm -- 29.99 in1015.6 mb - 0.00 in0.0 mm 0.00 in0.0 mm
03:27 AM 55.6°F13.1°C 53.1°F11.7°C 91% Calm Calm -- 29.99 in1015.6 mb - 0.00 in0.0 mm 0.00 in0.0 mm
03:32 AM 55.6°F13.1°C 53.1°F11.7°C 91% Calm Calm -- 29.99 in1015.6 mb - 0.00 in0.0 mm 0.00 in0.0 mm
03:37 AM 55.8°F13.2°C 53.2°F11.8°C 91% Calm Calm -- 29.99 in1015.6 mb - 0.00 in0.0 mm 0.00 in0.0 mm
03:42 AM 55.8°F13.2°C 53.2°F11.8°C 91% Calm Calm -- 29.99 in1015.6 mb - 0.00 in0.0 mm 0.00 in0.0 mm
03:47 AM 55.8°F13.2°C 53.2°F11.8°C 91% Calm Calm -- 29.99 in1015.6 mb - 0.00 in0.0 mm 0.00 in0.0 mm
03:52 AM 55.8°F13.2°C 53.2°F11.8°C 91% Calm Calm -- 29.99 in1015.6 mb - 0.00 in0.0 mm 0.00 in0.0 mm
03:57 AM 55.9°F13.3°C 53.4°F11.9°C 91% Calm Calm -- 29.99 in1015.6 mb - 0.00 in0.0 mm 0.00 in0.0 mm
04:02 AM 55.9°F13.3°C 53.4°F11.9°C 91% Calm Calm -- 29.99 in1015.6 mb - 0.00 in0.0 mm 0.00 in0.0 mm
04:07 AM 55.9°F13.3°C 53.4°F11.9°C 91% Calm Calm -- 29.99 in1015.6 mb - 0.00 in0.0 mm 0.00 in0.0 mm
04:12 AM 56.1°F13.4°C 53.6°F12.0°C 91% Calm Calm -- 29.99 in1015.6 mb - 0.00 in0.0 mm 0.00 in0.0 mm
04:17 AM 56.1°F13.4°C 53.6°F12.0°C 91% Calm Calm -- 29.99 in1015.6 mb - 0.00 in0.0 mm 0.00 in0.0 mm
04:22 AM 56.1°F13.4°C 53.8°F12.1°C 92% Calm Calm -- 29.99 in1015.6 mb - 0.00 in0.0 mm 0.00 in0.0 mm
04:27 AM 56.1°F13.4°C 53.8°F12.1°C 92% 0.9 mph SW1.4 kmh SW 2.9 mph4.7 kmh 29.99 in1015.6 mb - 0.00 in0.0 mm 0.00 in0.0 mm
04:32 AM 56.1°F13.4°C 53.8°F12.1°C 92% 2.2 mph SW3.5 kmh SW 3.8 mph6.1 kmh 29.99 in1015.6 mb - 0.00 in0.0 mm 0.00 in0.0 mm
04:37 AM 56.1°F13.4°C 53.8°F12.1°C 92% 2.2 mph W3.5 kmh W 4.3 mph6.9 kmh 29.99 in1015.6 mb - 0.00 in0.0 mm 0.00 in0.0 mm
04:42 AM 56.3°F13.5°C 54.0°F12.2°C 92% 2.0 mph SW3.2 kmh SW 3.6 mph5.8 kmh 29.99 in1015.6 mb - 0.00 in0.0 mm 0.00 in0.0 mm
04:47 AM 56.3°F13.5°C 54.0°F12.2°C 92% 0.2 mph WSW0.3 kmh WSW 1.8 mph2.9 kmh 29.99 in1015.6 mb - 0.00 in0.0 mm 0.00 in0.0 mm
04:52 AM 56.3°F13.5°C 54.0°F12.2°C 92% Calm Calm -- 30.01 in1016.3 mb - 0.00 in0.0 mm 0.00 in0.0 mm
04:57 AM 56.3°F13.5°C 54.0°F12.2°C 92% 0.2 mph SE0.3 kmh SE 2.0 mph3.2 kmh 30.01 in1016.3 mb - 0.00 in0.0 mm 0.00 in0.0 mm
05:02 AM 56.5°F13.6°C 54.1°F12.3°C 92% 0.4 mph SE0.6 kmh SE 1.8 mph2.9 kmh 30.01 in1016.3 mb - 0.00 in0.0 mm 0.00 in0.0 mm
05:07 AM 56.5°F13.6°C 54.1°F12.3°C 92% Calm Calm -- 30.01 in1016.3 mb - 0.00 in0.0 mm 0.00 in0.0 mm
05:12 AM 56.5°F13.6°C 54.1°F12.3°C 92% Calm Calm -- 30.01 in1016.3 mb - 0.00 in0.0 mm 0.00 in0.0 mm
05:17 AM 56.5°F13.6°C 54.1°F12.3°C 92% Calm Calm -- 30.01 in1016.3 mb - 0.00 in0.0 mm 0.00 in0.0 mm
05:22 AM 56.5°F13.6°C 54.1°F12.3°C 92% Calm Calm -- 30.04 in1017.3 mb - 0.00 in0.0 mm 0.00 in0.0 mm
05:27 AM 56.5°F13.6°C 54.1°F12.3°C 92% Calm Calm -- 30.04 in1017.3 mb - 0.00 in0.0 mm 0.00 in0.0 mm
05:32 AM 56.5°F13.6°C 54.1°F12.3°C 92% Calm Calm 0.9 mph1.4 kmh 30.04 in1017.3 mb - 0.00 in0.0 mm 0.00 in0.0 mm
05:37 AM 56.5°F13.6°C 54.0°F12.2°C 91% 0.2 mph S0.3 kmh S 1.3 mph2.1 kmh 30.04 in1017.3 mb - 0.00 in0.0 mm 0.00 in0.0 mm
05:42 AM 56.5°F13.6°C 54.0°F12.2°C 91% Calm Calm -- 30.04 in1017.3 mb - 0.00 in0.0 mm 0.00 in0.0 mm
05:47 AM 56.5°F13.6°C 54.0°F12.2°C 91% 0.2 mph SSE0.3 kmh SSE 2.0 mph3.2 kmh 30.04 in1017.3 mb - 0.00 in0.0 mm 0.00 in0.0 mm
05:52 AM 56.5°F13.6°C 54.0°F12.2°C 91% Calm Calm -- 30.04 in1017.3 mb - 0.00 in0.0 mm 0.00 in0.0 mm
05:57 AM 56.5°F13.6°C 54.0°F12.2°C 91% Calm Calm -- 30.04 in1017.3 mb - 0.00 in0.0 mm 0.00 in0.0 mm
06:02 AM 56.5°F13.6°C 54.0°F12.2°C 91% Calm Calm -- 30.04 in1017.3 mb - 0.00 in0.0 mm 0.00 in0.0 mm
06:07 AM 56.5°F13.6°C 54.0°F12.2°C 91% Calm Calm -- 30.04 in1017.3 mb - 0.00 in0.0 mm 0.00 in0.0 mm
06:12 AM 56.7°F13.7°C 54.1°F12.3°C 91% Calm Calm -- 30.04 in1017.3 mb - 0.00 in0.0 mm 0.00 in0.0 mm
06:17 AM 56.7°F13.7°C 54.1°F12.3°C 91% Calm Calm -- 30.04 in1017.3 mb - 0.00 in0.0 mm 0.00 in0.0 mm
06:22 AM 56.7°F13.7°C 54.1°F12.3°C 91% Calm Calm -- 30.04 in1017.3 mb - 0.00 in0.0 mm 0.00 in0.0 mm
06:27 AM 56.7°F13.7°C 54.1°F12.3°C 91% Calm Calm -- 30.04 in1017.3 mb - 0.00 in0.0 mm 0.00 in0.0 mm
06:32 AM 56.7°F13.7°C 54.1°F12.3°C 91% Calm Calm -- 30.04 in1017.3 mb - 0.00 in0.0 mm 0.00 in0.0 mm
06:37 AM 56.8°F13.8°C 54.3°F12.4°C 91% Calm Calm -- 30.04 in1017.3 mb - 0.00 in0.0 mm 0.00 in0.0 mm
06:42 AM 56.8°F13.8°C 54.3°F12.4°C 91% Calm Calm -- 30.04 in1017.3 mb - 0.00 in0.0 mm 0.00 in0.0 mm
06:47 AM 56.8°F13.8°C 54.3°F12.4°C 91% Calm Calm -- 30.04 in1017.3 mb - 0.00 in0.0 mm 0.00 in0.0 mm
06:52 AM 56.8°F13.8°C 54.3°F12.4°C 91% Calm Calm -- 30.04 in1017.3 mb - 0.00 in0.0 mm 0.00 in0.0 mm
06:57 AM 56.8°F13.8°C 54.3°F12.4°C 91% Calm Calm -- 30.04 in1017.3 mb - 0.00 in0.0 mm 0.00 in0.0 mm
07:02 AM 56.8°F13.8°C 54.3°F12.4°C 91% Calm Calm -- 30.04 in1017.3 mb - 0.00 in0.0 mm 0.00 in0.0 mm
07:07 AM 57.0°F13.9°C 54.5°F12.5°C 91% Calm Calm -- 30.04 in1017.3 mb - 0.00 in0.0 mm 0.00 in0.0 mm
07:12 AM 57.0°F13.9°C 54.5°F12.5°C 91% Calm Calm -- 30.04 in1017.3 mb - 0.00 in0.0 mm 0.00 in0.0 mm
07:17 AM 57.0°F13.9°C 54.5°F12.5°C 91% Calm Calm -- 30.04 in1017.3 mb - 0.00 in0.0 mm 0.00 in0.0 mm
07:22 AM 57.0°F13.9°C 54.5°F12.5°C 91% Calm Calm -- 30.07 in1018.3 mb - 0.00 in0.0 mm 0.00 in0.0 mm
07:27 AM 57.0°F13.9°C 54.5°F12.5°C 91% Calm Calm -- 30.07 in1018.3 mb - 0.00 in0.0 mm 0.00 in0.0 mm
07:32 AM 57.0°F13.9°C 54.1°F12.3°C 90% Calm Calm -- 30.07 in1018.3 mb - 0.00 in0.0 mm 0.00 in0.0 mm
07:37 AM 57.0°F13.9°C 54.1°F12.3°C 90% Calm Calm -- 30.01 in1016.3 mb - 0.00 in0.0 mm 0.00 in0.0 mm
07:42 AM 57.0°F13.9°C 54.1°F12.3°C 90% Calm Calm -- 30.01 in1016.3 mb - 0.00 in0.0 mm 0.00 in0.0 mm
07:47 AM 57.0°F13.9°C 54.1°F12.3°C 90% Calm Calm -- 30.01 in1016.3 mb - 0.00 in0.0 mm 0.00 in0.0 mm
07:52 AM 57.2°F14.0°C 54.3°F12.4°C 90% Calm Calm -- 30.04 in1017.3 mb - 0.00 in0.0 mm 0.00 in0.0 mm
07:57 AM 57.2°F14.0°C 54.7°F12.6°C 91% Calm Calm -- 30.04 in1017.3 mb - 0.00 in0.0 mm 0.00 in0.0 mm
08:02 AM 57.4°F14.1°C 54.9°F12.7°C 91% Calm Calm -- 30.04 in1017.3 mb - 0.00 in0.0 mm 0.00 in0.0 mm
08:07 AM 57.4°F14.1°C 54.9°F12.7°C 91% Calm Calm -- 30.04 in1017.3 mb - 0.00 in0.0 mm 0.00 in0.0 mm
08:12 AM 57.7°F14.3°C 55.2°F12.9°C 91% Calm Calm -- 30.04 in1017.3 mb - 0.00 in0.0 mm 0.00 in0.0 mm
08:17 AM 57.9°F14.4°C 55.4°F13.0°C 91% Calm Calm -- 30.04 in1017.3 mb - 0.00 in0.0 mm 0.00 in0.0 mm
08:22 AM 57.9°F14.4°C 55.4°F13.0°C 91% Calm Calm -- 30.04 in1017.3 mb - 0.00 in0.0 mm 0.00 in0.0 mm
08:27 AM 58.3°F14.6°C 55.6°F13.1°C 91% Calm Calm -- 30.04 in1017.3 mb - 0.00 in0.0 mm 0.00 in0.0 mm
08:32 AM 58.5°F14.7°C 55.8°F13.2°C 91% Calm Calm -- 30.04 in1017.3 mb - 0.00 in0.0 mm 0.00 in0.0 mm
08:37 AM 58.6°F14.8°C 55.8°F13.2°C 90% Calm Calm -- 30.04 in1017.3 mb - 0.00 in0.0 mm 0.00 in0.0 mm
08:42 AM 59.0°F15.0°C 56.3°F13.5°C 91% Calm Calm -- 30.04 in1017.3 mb - 0.00 in0.0 mm 0.00 in0.0 mm
08:47 AM 59.9°F15.5°C 57.2°F14.0°C 91% Calm Calm -- 30.04 in1017.3 mb - 0.00 in0.0 mm 0.00 in0.0 mm
08:52 AM 60.3°F15.7°C 57.4°F14.1°C 90% Calm Calm -- 30.04 in1017.3 mb - 0.00 in0.0 mm 0.00 in0.0 mm
08:57 AM 60.6°F15.9°C 57.4°F14.1°C 89% Calm Calm -- 30.04 in1017.3 mb - 0.00 in0.0 mm 0.00 in0.0 mm
09:02 AM 61.2°F16.2°C 57.6°F14.2°C 88% 0.2 mph SE0.3 kmh SE 2.2 mph3.5 kmh 30.04 in1017.3 mb - 0.00 in0.0 mm 0.00 in0.0 mm
09:07 AM 61.5°F16.4°C 57.4°F14.1°C 86% Calm Calm -- 30.07 in1018.3 mb - 0.00 in0.0 mm 0.00 in0.0 mm
09:12 AM 61.9°F16.6°C 57.6°F14.2°C 86% Calm Calm -- 30.07 in1018.3 mb - 0.00 in0.0 mm 0.00 in0.0 mm
09:17 AM 62.1°F16.7°C 57.6°F14.2°C 85% 0.2 mph S0.3 kmh S 2.5 mph4.0 kmh 30.07 in1018.3 mb - 0.00 in0.0 mm 0.00 in0.0 mm
09:22 AM 62.4°F16.9°C 57.6°F14.2°C 84% Calm Calm -- 30.07 in1018.3 mb - 0.00 in0.0 mm 0.00 in0.0 mm
09:27 AM 62.6°F17.0°C 57.4°F14.1°C 83% Calm Calm -- 30.07 in1018.3 mb - 0.00 in0.0 mm 0.00 in0.0 mm
09:32 AM 62.8°F17.1°C 56.5°F13.6°C 80% Calm Calm -- 30.07 in1018.3 mb - 0.00 in0.0 mm 0.00 in0.0 mm
09:37 AM 62.6°F17.0°C 56.3°F13.5°C 80% Calm Calm -- 30.07 in1018.3 mb - 0.00 in0.0 mm 0.00 in0.0 mm
09:42 AM 62.6°F17.0°C 56.3°F13.5°C 80% Calm Calm -- 30.07 in1018.3 mb - 0.00 in0.0 mm 0.00 in0.0 mm
09:47 AM 63.0°F17.2°C 56.7°F13.7°C 80% Calm Calm -- 30.07 in1018.3 mb - 0.00 in0.0 mm 0.00 in0.0 mm
09:52 AM 63.9°F17.7°C 57.6°F14.2°C 80% Calm Calm -- 30.07 in1018.3 mb - 0.00 in0.0 mm 0.00 in0.0 mm
09:57 AM 64.4°F18.0°C 57.0°F13.9°C 77% Calm Calm -- 30.07 in1018.3 mb - 0.00 in0.0 mm 0.00 in0.0 mm
10:02 AM 64.6°F18.1°C 57.2°F14.0°C 77% Calm Calm -- 30.07 in1018.3 mb - 0.00 in0.0 mm 0.00 in0.0 mm
10:07 AM 65.1°F18.4°C 57.4°F14.1°C 76% 0.9 mph SE1.4 kmh SE 3.1 mph5.0 kmh 30.07 in1018.3 mb - 0.00 in0.0 mm 0.00 in0.0 mm
10:12 AM 65.3°F18.5°C 57.6°F14.2°C 76% 1.1 mph N1.8 kmh N 5.8 mph9.3 kmh 30.07 in1018.3 mb - 0.00 in0.0 mm 0.00 in0.0 mm
10:17 AM 65.5°F18.6°C 57.7°F14.3°C 76% 1.1 mph NE1.8 kmh NE 3.8 mph6.1 kmh 30.07 in1018.3 mb - 0.00 in0.0 mm 0.00 in0.0 mm
10:22 AM 65.1°F18.4°C 57.0°F13.9°C 75% 1.8 mph N2.9 kmh N 4.9 mph7.9 kmh 30.07 in1018.3 mb - 0.00 in0.0 mm 0.00 in0.0 mm
10:27 AM 65.1°F18.4°C 56.7°F13.7°C 74% 3.8 mph NNE6.1 kmh NNE 7.4 mph11.9 kmh 30.07 in1018.3 mb - 0.00 in0.0 mm 0.00 in0.0 mm
10:32 AM 65.7°F18.7°C 57.6°F14.2°C 75% 3.1 mph NNE5.0 kmh NNE 4.9 mph7.9 kmh 30.07 in1018.3 mb - 0.00 in0.0 mm 0.00 in0.0 mm
10:37 AM 66.2°F19.0°C 58.5°F14.7°C 76% 4.3 mph NNE6.9 kmh NNE 7.2 mph11.6 kmh 30.07 in1018.3 mb - 0.00 in0.0 mm 0.00 in0.0 mm
10:42 AM 66.2°F19.0°C 57.7°F14.3°C 74% 5.4 mph NNE8.7 kmh NNE 7.4 mph11.9 kmh 30.07 in1018.3 mb - 0.00 in0.0 mm 0.00 in0.0 mm
10:47 AM 66.6°F19.2°C 58.5°F14.7°C 75% 4.7 mph NNE7.6 kmh NNE 4.7 mph7.6 kmh 30.07 in1018.3 mb - 0.00 in0.0 mm 0.00 in0.0 mm
10:52 AM 66.6°F19.2°C 58.5°F14.7°C 75% 4.3 mph N6.9 kmh N 7.2 mph11.6 kmh 30.07 in1018.3 mb - 0.00 in0.0 mm 0.00 in0.0 mm
10:57 AM 66.6°F19.2°C 58.5°F14.7°C 75% 4.9 mph NNE7.9 kmh NNE 8.5 mph13.7 kmh 30.07 in1018.3 mb - 0.00 in0.0 mm 0.00 in0.0 mm
11:02 AM 66.7°F19.3°C 58.6°F14.8°C 75% 5.1 mph NE8.2 kmh NE 9.2 mph14.8 kmh 30.07 in1018.3 mb - 0.00 in0.0 mm 0.00 in0.0 mm
11:07 AM 66.6°F19.2°C 58.5°F14.7°C 75% 5.6 mph NE9.0 kmh NE 9.4 mph15.1 kmh 30.07 in1018.3 mb - 0.00 in0.0 mm 0.00 in0.0 mm
11:12 AM 66.7°F19.3°C 58.6°F14.8°C 75% 5.8 mph NE9.3 kmh NE 8.3 mph13.4 kmh 30.07 in1018.3 mb - 0.00 in0.0 mm 0.00 in0.0 mm
11:17 AM 66.6°F19.2°C 58.5°F14.7°C 75% 6.3 mph N10.1 kmh N 9.8 mph15.8 kmh 30.07 in1018.3 mb - 0.00 in0.0 mm 0.00 in0.0 mm
11:22 AM 66.9°F19.4°C 58.8°F14.9°C 75% 5.8 mph NE9.3 kmh NE 5.8 mph9.3 kmh 30.07 in1018.3 mb - 0.00 in0.0 mm 0.00 in0.0 mm
11:27 AM 66.9°F19.4°C 58.8°F14.9°C 75% 5.4 mph NE8.7 kmh NE 8.9 mph14.3 kmh 30.07 in1018.3 mb - 0.00 in0.0 mm 0.00 in0.0 mm
11:32 AM 67.1°F19.5°C 59.0°F15.0°C 75% 5.4 mph NE8.7 kmh NE 7.6 mph12.2 kmh 30.07 in1018.3 mb - 0.00 in0.0 mm 0.00 in0.0 mm
11:37 AM 67.8°F19.9°C 59.9°F15.5°C 76% 3.8 mph NNE6.1 kmh NNE 7.4 mph11.9 kmh 30.10 in1019.3 mb - 0.00 in0.0 mm 0.00 in0.0 mm
11:42 AM 68.0°F20.0°C 59.4°F15.2°C 74% 4.0 mph NE6.4 kmh NE 7.2 mph11.6 kmh 30.10 in1019.3 mb - 0.00 in0.0 mm 0.00 in0.0 mm
11:47 AM 68.2°F20.1°C 59.5°F15.3°C 74% 5.1 mph NE8.2 kmh NE 9.2 mph14.8 kmh 30.10 in1019.3 mb - 0.00 in0.0 mm 0.00 in0.0 mm
11:52 AM 68.4°F20.2°C 59.4°F15.2°C 73% 4.7 mph NNE7.6 kmh NNE 8.7 mph14.0 kmh 30.07 in1018.3 mb - 0.00 in0.0 mm 0.00 in0.0 mm
11:57 AM 68.5°F20.3°C 59.5°F15.3°C 73% 4.9 mph NNE7.9 kmh NNE 7.6 mph12.2 kmh 30.07 in1018.3 mb - 0.00 in0.0 mm 0.00 in0.0 mm
12:02 PM 68.7°F20.4°C 59.4°F15.2°C 72% 3.8 mph NNE6.1 kmh NNE 6.5 mph10.5 kmh 30.07 in1018.3 mb - 0.00 in0.0 mm 0.00 in0.0 mm
12:07 PM 68.9°F20.5°C 59.5°F15.3°C 72% 3.6 mph N5.8 kmh N 6.9 mph11.1 kmh 30.07 in1018.3 mb - 0.00 in0.0 mm 0.00 in0.0 mm
12:12 PM 69.3°F20.7°C 59.9°F15.5°C 72% 3.4 mph NNE5.5 kmh NNE 8.3 mph13.4 kmh 30.07 in1018.3 mb - 0.00 in0.0 mm 0.00 in0.0 mm
12:17 PM 69.6°F20.9°C 59.7°F15.4°C 71% 2.9 mph N4.7 kmh N 6.0 mph9.7 kmh 30.07 in1018.3 mb - 0.00 in0.0 mm 0.00 in0.0 mm
12:22 PM 69.8°F21.0°C 59.5°F15.3°C 70% 4.0 mph NNE6.4 kmh NNE 7.6 mph12.2 kmh 30.07 in1018.3 mb - 0.00 in0.0 mm 0.00 in0.0 mm
12:27 PM 70.0°F21.1°C 59.4°F15.2°C 69% 4.7 mph N7.6 kmh N 8.1 mph13.0 kmh 30.07 in1018.3 mb - 0.00 in0.0 mm 0.00 in0.0 mm
12:32 PM 70.3°F21.3°C 59.7°F15.4°C 69% 5.1 mph N8.2 kmh N 7.2 mph11.6 kmh 30.07 in1018.3 mb - 0.00 in0.0 mm 0.00 in0.0 mm
12:37 PM 70.7°F21.5°C 59.5°F15.3°C 68% 2.9 mph N4.7 kmh N 6.0 mph9.7 kmh 30.07 in1018.3 mb - 0.00 in0.0 mm 0.00 in0.0 mm
12:42 PM 70.7°F21.5°C 59.2°F15.1°C 67% 5.8 mph N9.3 kmh N 10.1 mph16.3 kmh 30.07 in1018.3 mb - 0.00 in0.0 mm 0.00 in0.0 mm
12:47 PM 70.9°F21.6°C 59.4°F15.2°C 67% 6.7 mph NE10.8 kmh NE 9.6 mph15.4 kmh 30.07 in1018.3 mb - 0.00 in0.0 mm 0.00 in0.0 mm
12:52 PM 70.9°F21.6°C 58.1°F14.5°C 64% 5.4 mph NNE8.7 kmh NNE 9.2 mph14.8 kmh 30.07 in1018.3 mb - 0.00 in0.0 mm 0.00 in0.0 mm
12:57 PM 71.1°F21.7°C 57.9°F14.4°C 63% 4.7 mph NNE7.6 kmh NNE 8.3 mph13.4 kmh 30.07 in1018.3 mb - 0.00 in0.0 mm 0.00 in0.0 mm
01:02 PM 70.9°F21.6°C 56.8°F13.8°C 61% 5.6 mph N9.0 kmh N 8.7 mph14.0 kmh 30.07 in1018.3 mb - 0.00 in0.0 mm 0.00 in0.0 mm
01:07 PM 71.4°F21.9°C 57.7°F14.3°C 62% 4.7 mph NNE7.6 kmh NNE 8.9 mph14.3 kmh 30.07 in1018.3 mb - 0.00 in0.0 mm 0.00 in0.0 mm
01:12 PM 71.8°F22.1°C 57.6°F14.2°C 61% 4.5 mph NNE7.2 kmh NNE 4.5 mph7.2 kmh 30.07 in1018.3 mb - 0.00 in0.0 mm 0.00 in0.0 mm
01:17 PM 72.1°F22.3°C 57.9°F14.4°C 61% 4.9 mph NNE7.9 kmh NNE 8.1 mph13.0 kmh 30.07 in1018.3 mb - 0.00 in0.0 mm 0.00 in0.0 mm
01:22 PM 72.3°F22.4°C 58.1°F14.5°C 61% 3.1 mph ENE5.0 kmh ENE 6.9 mph11.1 kmh 30.07 in1018.3 mb - 0.00 in0.0 mm 0.00 in0.0 mm
01:27 PM 72.7°F22.6°C 57.6°F14.2°C 59% 6.7 mph N10.8 kmh N 9.8 mph15.8 kmh 30.07 in1018.3 mb - 0.00 in0.0 mm 0.00 in0.0 mm
01:32 PM 72.9°F22.7°C 57.7°F14.3°C 59% 5.4 mph NNE8.7 kmh NNE 9.6 mph15.4 kmh 30.07 in1018.3 mb - 0.00 in0.0 mm 0.00 in0.0 mm
01:37 PM 72.7°F22.6°C 57.0°F13.9°C 58% 4.9 mph NNE7.9 kmh NNE 8.9 mph14.3 kmh 30.07 in1018.3 mb - 0.00 in0.0 mm 0.00 in0.0 mm
01:42 PM 72.7°F22.6°C 57.6°F14.2°C 59% 6.7 mph NNE10.8 kmh NNE 10.1 mph16.3 kmh 30.07 in1018.3 mb - 0.00 in0.0 mm 0.00 in0.0 mm
01:47 PM 72.3°F22.4°C 57.2°F14.0°C 59% 4.7 mph N7.6 kmh N 9.4 mph15.1 kmh 30.07 in1018.3 mb - 0.00 in0.0 mm 0.00 in0.0 mm
01:52 PM 72.0°F22.2°C 57.4°F14.1°C 60% 6.0 mph N9.7 kmh N 9.6 mph15.4 kmh 30.07 in1018.3 mb - 0.00 in0.0 mm 0.00 in0.0 mm
01:57 PM 71.8°F22.1°C 56.7°F13.7°C 59% 6.9 mph NE11.1 kmh NE 12.3 mph19.8 kmh 30.07 in1018.3 mb - 0.00 in0.0 mm 0.00 in0.0 mm
02:02 PM 72.0°F22.2°C 57.4°F14.1°C 60% 6.3 mph NE10.1 kmh NE 10.3 mph16.6 kmh 30.07 in1018.3 mb - 0.00 in0.0 mm 0.00 in0.0 mm
02:07 PM 72.0°F22.2°C 56.8°F13.8°C 59% 3.8 mph NE6.1 kmh NE 6.7 mph10.8 kmh 30.07 in1018.3 mb - 0.00 in0.0 mm 0.00 in0.0 mm
02:12 PM 71.6°F22.0°C 56.5°F13.6°C 59% 7.6 mph N12.2 kmh N 12.3 mph19.8 kmh 30.07 in1018.3 mb - 0.00 in0.0 mm 0.00 in0.0 mm
02:17 PM 71.8°F22.1°C 57.2°F14.0°C 60% 6.9 mph N11.1 kmh N 10.3 mph16.6 kmh 30.07 in1018.3 mb - 0.00 in0.0 mm 0.00 in0.0 mm
02:22 PM 71.8°F22.1°C 57.6°F14.2°C 61% 6.0 mph NNE9.7 kmh NNE 9.6 mph15.4 kmh 30.07 in1018.3 mb - 0.00 in0.0 mm 0.00 in0.0 mm
02:27 PM 71.8°F22.1°C 57.6°F14.2°C 61% 6.5 mph N10.5 kmh N 10.1 mph16.3 kmh 30.07 in1018.3 mb - 0.00 in0.0 mm 0.00 in0.0 mm
02:32 PM 71.4°F21.9°C 57.2°F14.0°C 61% 5.4 mph N8.7 kmh N 5.4 mph8.7 kmh 30.07 in1018.3 mb - 0.00 in0.0 mm 0.00 in0.0 mm
02:37 PM 71.4°F21.9°C 57.7°F14.3°C 62% 5.8 mph NE9.3 kmh NE 9.6 mph15.4 kmh 30.04 in1017.3 mb - 0.00 in0.0 mm 0.00 in0.0 mm
02:42 PM 71.2°F21.8°C 57.6°F14.2°C 62% 4.3 mph NE6.9 kmh NE 8.9 mph14.3 kmh 30.04 in1017.3 mb - 0.00 in0.0 mm 0.00 in0.0 mm
02:47 PM 71.1°F21.7°C 57.4°F14.1°C 62% 5.8 mph N9.3 kmh N 5.8 mph9.3 kmh 30.04 in1017.3 mb - 0.00 in0.0 mm 0.00 in0.0 mm
02:52 PM 70.9°F21.6°C 56.8°F13.8°C 61% 6.3 mph N10.1 kmh N 9.8 mph15.8 kmh 30.07 in1018.3 mb - 0.00 in0.0 mm 0.00 in0.0 mm
02:57 PM 70.9°F21.6°C 56.8°F13.8°C 61% 5.1 mph N8.2 kmh N 7.6 mph12.2 kmh 30.07 in1018.3 mb - 0.00 in0.0 mm 0.00 in0.0 mm
03:02 PM 71.1°F21.7°C 57.0°F13.9°C 61% 4.7 mph NNE7.6 kmh NNE 7.4 mph11.9 kmh 30.07 in1018.3 mb - 0.00 in0.0 mm 0.00 in0.0 mm
03:07 PM 71.1°F21.7°C 57.0°F13.9°C 61% 4.5 mph NE7.2 kmh NE 6.5 mph10.5 kmh 30.07 in1018.3 mb - 0.00 in0.0 mm 0.00 in0.0 mm
03:12 PM 70.9°F21.6°C 57.7°F14.3°C 63% 4.5 mph NNE7.2 kmh NNE 7.6 mph12.2 kmh 30.07 in1018.3 mb - 0.00 in0.0 mm 0.00 in0.0 mm
03:17 PM 70.9°F21.6°C 58.5°F14.7°C 65% 5.1 mph NE8.2 kmh NE 8.5 mph13.7 kmh 30.07 in1018.3 mb - 0.00 in0.0 mm 0.00 in0.0 mm
03:22 PM 70.9°F21.6°C 58.5°F14.7°C 65% 4.5 mph NNE7.2 kmh NNE 6.9 mph11.1 kmh 30.07 in1018.3 mb - 0.00 in0.0 mm 0.00 in0.0 mm
03:27 PM 70.9°F21.6°C 58.5°F14.7°C 65% 6.0 mph NNE9.7 kmh NNE 9.6 mph15.4 kmh 30.07 in1018.3 mb - 0.00 in0.0 mm 0.00 in0.0 mm
03:32 PM 70.9°F21.6°C 58.5°F14.7°C 65% 5.4 mph N8.7 kmh N 8.9 mph14.3 kmh 30.07 in1018.3 mb - 0.00 in0.0 mm 0.00 in0.0 mm
03:37 PM 70.9°F21.6°C 58.5°F14.7°C 65% 4.7 mph NNE7.6 kmh NNE 8.7 mph14.0 kmh 30.04 in1017.3 mb - 0.00 in0.0 mm 0.00 in0.0 mm
03:42 PM 70.9°F21.6°C 58.1°F14.5°C 64% 4.0 mph NE6.4 kmh NE 6.9 mph11.1 kmh 30.04 in1017.3 mb - 0.00 in0.0 mm 0.00 in0.0 mm
03:47 PM 70.9°F21.6°C 58.5°F14.7°C 65% 5.1 mph N8.2 kmh N 9.2 mph14.8 kmh 30.04 in1017.3 mb - 0.00 in0.0 mm 0.00 in0.0 mm
03:52 PM 70.7°F21.5°C 57.9°F14.4°C 64% 4.5 mph NE7.2 kmh NE 7.4 mph11.9 kmh 30.04 in1017.3 mb - 0.00 in0.0 mm 0.00 in0.0 mm
03:57 PM 70.5°F21.4°C 58.3°F14.6°C 65% 4.0 mph N6.4 kmh N 4.0 mph6.4 kmh 30.04 in1017.3 mb - 0.00 in0.0 mm 0.00 in0.0 mm
04:02 PM 70.5°F21.4°C 58.3°F14.6°C 65% 4.3 mph E6.9 kmh E 8.5 mph13.7 kmh 30.04 in1017.3 mb - 0.00 in0.0 mm 0.00 in0.0 mm
04:07 PM 70.5°F21.4°C 58.3°F14.6°C 65% 4.9 mph ENE7.9 kmh ENE 8.7 mph14.0 kmh 30.04 in1017.3 mb - 0.00 in0.0 mm 0.00 in0.0 mm
04:12 PM 70.7°F21.5°C 58.8°F14.9°C 66% 2.9 mph E4.7 kmh E 5.8 mph9.3 kmh 30.04 in1017.3 mb - 0.00 in0.0 mm 0.00 in0.0 mm
04:17 PM 70.5°F21.4°C 58.6°F14.8°C 66% 3.1 mph SE5.0 kmh SE 6.0 mph9.7 kmh 30.04 in1017.3 mb - 0.00 in0.0 mm 0.00 in0.0 mm
04:22 PM 70.3°F21.3°C 58.5°F14.7°C 66% 4.5 mph NE7.2 kmh NE 8.3 mph13.4 kmh 30.07 in1018.3 mb - 0.00 in0.0 mm 0.00 in0.0 mm
04:27 PM 70.2°F21.2°C 58.6°F14.8°C 67% 4.9 mph ENE7.9 kmh ENE 4.9 mph7.9 kmh 30.07 in1018.3 mb - 0.00 in0.0 mm 0.00 in0.0 mm
04:32 PM 70.0°F21.1°C 58.5°F14.7°C 67% 4.0 mph ENE6.4 kmh ENE 8.1 mph13.0 kmh 30.07 in1018.3 mb - 0.00 in0.0 mm 0.00 in0.0 mm
04:37 PM 69.8°F21.0°C 58.3°F14.6°C 67% 4.9 mph NE7.9 kmh NE 4.9 mph7.9 kmh 30.04 in1017.3 mb - 0.00 in0.0 mm 0.00 in0.0 mm
04:42 PM 69.8°F21.0°C 58.8°F14.9°C 68% 6.3 mph NE10.1 kmh NE 8.9 mph14.3 kmh 30.04 in1017.3 mb - 0.00 in0.0 mm 0.00 in0.0 mm
04:47 PM 69.8°F21.0°C 59.2°F15.1°C 69% 5.4 mph NE8.7 kmh NE 8.1 mph13.0 kmh 30.04 in1017.3 mb - 0.00 in0.0 mm 0.00 in0.0 mm
04:52 PM 69.6°F20.9°C 59.0°F15.0°C 69% 4.9 mph N7.9 kmh N 8.5 mph13.7 kmh 30.04 in1017.3 mb - 0.00 in0.0 mm 0.00 in0.0 mm
04:57 PM 69.4°F20.8°C 58.8°F14.9°C 69% 4.9 mph NE7.9 kmh NE 8.3 mph13.4 kmh 30.04 in1017.3 mb - 0.00 in0.0 mm 0.00 in0.0 mm
05:02 PM 69.4°F20.8°C 59.2°F15.1°C 70% 4.5 mph NE7.2 kmh NE 8.5 mph13.7 kmh 30.04 in1017.3 mb - 0.00 in0.0 mm 0.00 in0.0 mm
05:07 PM 69.1°F20.6°C 58.8°F14.9°C 70% 5.8 mph N9.3 kmh N 10.5 mph16.9 kmh 30.07 in1018.3 mb - 0.00 in0.0 mm 0.00 in0.0 mm
05:12 PM 68.9°F20.5°C 59.2°F15.1°C 71% 6.0 mph NNE9.7 kmh NNE 9.6 mph15.4 kmh 30.07 in1018.3 mb - 0.00 in0.0 mm 0.00 in0.0 mm
05:17 PM 68.9°F20.5°C 59.2°F15.1°C 71% 6.3 mph NE10.1 kmh NE 10.3 mph16.6 kmh 30.07 in1018.3 mb - 0.00 in0.0 mm 0.00 in0.0 mm
05:22 PM 68.7°F20.4°C 59.0°F15.0°C 71% 5.8 mph NNE9.3 kmh NNE 9.6 mph15.4 kmh 30.07 in1018.3 mb - 0.00 in0.0 mm 0.00 in0.0 mm
05:27 PM 68.5°F20.3°C 58.8°F14.9°C 71% 4.7 mph ENE7.6 kmh ENE 8.7 mph14.0 kmh 30.07 in1018.3 mb - 0.00 in0.0 mm 0.00 in0.0 mm
05:32 PM 68.5°F20.3°C 58.8°F14.9°C 71% 6.3 mph ENE10.1 kmh ENE 10.5 mph16.9 kmh 30.07 in1018.3 mb - 0.00 in0.0 mm 0.00 in0.0 mm
05:37 PM 68.4°F20.2°C 59.0°F15.0°C 72% 5.6 mph NE9.0 kmh NE 8.9 mph14.3 kmh 30.07 in1018.3 mb - 0.00 in0.0 mm 0.00 in0.0 mm
05:42 PM 68.4°F20.2°C 59.0°F15.0°C 72% 4.7 mph NE7.6 kmh NE 8.5 mph13.7 kmh 30.07 in1018.3 mb - 0.00 in0.0 mm 0.00 in0.0 mm
05:47 PM 68.2°F20.1°C 58.8°F14.9°C 72% 5.1 mph NE8.2 kmh NE 9.8 mph15.8 kmh 30.07 in1018.3 mb - 0.00 in0.0 mm 0.00 in0.0 mm
05:52 PM 68.2°F20.1°C 59.2°F15.1°C 73% 5.6 mph NE9.0 kmh NE 9.2 mph14.8 kmh 30.04 in1017.3 mb - 0.00 in0.0 mm 0.00 in0.0 mm
05:57 PM 68.0°F20.0°C 59.0°F15.0°C 73% 5.1 mph NE8.2 kmh NE 9.4 mph15.1 kmh 30.04 in1017.3 mb - 0.00 in0.0 mm 0.00 in0.0 mm
06:02 PM 68.0°F20.0°C 59.0°F15.0°C 73% 4.3 mph NE6.9 kmh NE 8.7 mph14.0 kmh 30.04 in1017.3 mb - 0.00 in0.0 mm 0.00 in0.0 mm
06:07 PM 68.0°F20.0°C 59.0°F15.0°C 73% 4.7 mph NE7.6 kmh NE 7.4 mph11.9 kmh 30.07 in1018.3 mb - 0.00 in0.0 mm 0.00 in0.0 mm
06:12 PM 67.8°F19.9°C 59.2°F15.1°C 74% 3.6 mph E5.8 kmh E 6.3 mph10.1 kmh 30.07 in1018.3 mb - 0.00 in0.0 mm 0.00 in0.0 mm
06:17 PM 67.6°F19.8°C 59.4°F15.2°C 75% 3.1 mph NNE5.0 kmh NNE 6.0 mph9.7 kmh 30.07 in1018.3 mb - 0.00 in0.0 mm 0.00 in0.0 mm
06:22 PM 67.5°F19.7°C 59.2°F15.1°C 75% 4.7 mph NNE7.6 kmh NNE 7.2 mph11.6 kmh 30.07 in1018.3 mb - 0.00 in0.0 mm 0.00 in0.0 mm
06:27 PM 67.3°F19.6°C 59.0°F15.0°C 75% 4.7 mph NNE7.6 kmh NNE 7.4 mph11.9 kmh 30.07 in1018.3 mb - 0.00 in0.0 mm 0.00 in0.0 mm
06:32 PM 67.1°F19.5°C 59.0°F15.0°C 75% 3.8 mph NNE6.1 kmh NNE 5.4 mph8.7 kmh 30.07 in1018.3 mb - 0.00 in0.0 mm 0.00 in0.0 mm
06:37 PM 67.1°F19.5°C 59.4°F15.2°C 76% 4.7 mph N7.6 kmh N 7.4 mph11.9 kmh 30.07 in1018.3 mb - 0.00 in0.0 mm 0.00 in0.0 mm
06:42 PM 66.9°F19.4°C 59.2°F15.1°C 76% 4.3 mph NE6.9 kmh NE 6.5 mph10.5 kmh 30.07 in1018.3 mb - 0.00 in0.0 mm 0.00 in0.0 mm
06:47 PM 66.7°F19.3°C 59.0°F15.0°C 76% 4.9 mph NNE7.9 kmh NNE 7.2 mph11.6 kmh 30.07 in1018.3 mb - 0.00 in0.0 mm 0.00 in0.0 mm
06:52 PM 66.6°F19.2°C 59.2°F15.1°C 77% 4.9 mph NNE7.9 kmh NNE 8.1 mph13.0 kmh 30.07 in1018.3 mb - 0.00 in0.0 mm 0.00 in0.0 mm
06:57 PM 66.4°F19.1°C 59.0°F15.0°C 77% 4.7 mph NE7.6 kmh NE 7.4 mph11.9 kmh 30.07 in1018.3 mb - 0.00 in0.0 mm 0.00 in0.0 mm
07:02 PM 66.2°F19.0°C 58.8°F14.9°C 77% 2.9 mph NNE4.7 kmh NNE 5.8 mph9.3 kmh 30.07 in1018.3 mb - 0.00 in0.0 mm 0.00 in0.0 mm
07:07 PM 66.0°F18.9°C 59.0°F15.0°C 78% 4.0 mph N6.4 kmh N 4.0 mph6.4 kmh 30.07 in1018.3 mb - 0.00 in0.0 mm 0.00 in0.0 mm
07:12 PM 65.8°F18.8°C 58.8°F14.9°C 78% 2.9 mph NNE4.7 kmh NNE 4.5 mph7.2 kmh 30.07 in1018.3 mb - 0.00 in0.0 mm 0.00 in0.0 mm
07:17 PM 65.7°F18.7°C 58.6°F14.8°C 78% 3.1 mph NNE5.0 kmh NNE 5.1 mph8.2 kmh 30.07 in1018.3 mb - 0.00 in0.0 mm 0.00 in0.0 mm
07:22 PM 65.5°F18.6°C 58.5°F14.7°C 78% 2.0 mph NNE3.2 kmh NNE 4.7 mph7.6 kmh 30.07 in1018.3 mb - 0.00 in0.0 mm 0.00 in0.0 mm
07:27 PM 64.9°F18.3°C 58.3°F14.6°C 79% 0.2 mph NE0.3 kmh NE 2.5 mph4.0 kmh 30.07 in1018.3 mb - 0.00 in0.0 mm 0.00 in0.0 mm
07:32 PM 64.8°F18.2°C 58.1°F14.5°C 79% Calm Calm -- 30.07 in1018.3 mb - 0.00 in0.0 mm 0.00 in0.0 mm
07:37 PM 64.6°F18.1°C 58.3°F14.6°C 80% 1.6 mph N2.6 kmh N 5.4 mph8.7 kmh 30.10 in1019.3 mb - 0.00 in0.0 mm 0.00 in0.0 mm
07:42 PM 64.2°F17.9°C 58.3°F14.6°C 81% 2.5 mph N4.0 kmh N 5.8 mph9.3 kmh 30.10 in1019.3 mb - 0.00 in0.0 mm 0.00 in0.0 mm
07:47 PM 64.0°F17.8°C 58.1°F14.5°C 81% 2.9 mph N4.7 kmh N 4.0 mph6.4 kmh 30.10 in1019.3 mb - 0.00 in0.0 mm 0.00 in0.0 mm
07:52 PM 63.9°F17.7°C 57.9°F14.4°C 81% 2.5 mph N4.0 kmh N 2.5 mph4.0 kmh 30.10 in1019.3 mb - 0.00 in0.0 mm 0.00 in0.0 mm
07:57 PM 63.7°F17.6°C 58.1°F14.5°C 82% 0.9 mph N1.4 kmh N 2.7 mph4.3 kmh 30.10 in1019.3 mb - 0.00 in0.0 mm 0.00 in0.0 mm
08:02 PM 63.5°F17.5°C 57.9°F14.4°C 82% 1.8 mph NE2.9 kmh NE 4.7 mph7.6 kmh 30.10 in1019.3 mb - 0.00 in0.0 mm 0.00 in0.0 mm
08:07 PM 63.5°F17.5°C 57.9°F14.4°C 82% 0.9 mph NNE1.4 kmh NNE 3.6 mph5.8 kmh 30.10 in1019.3 mb - 0.00 in0.0 mm 0.00 in0.0 mm
08:12 PM 63.3°F17.4°C 57.7°F14.3°C 82% 1.3 mph NE2.1 kmh NE 1.3 mph2.1 kmh 30.10 in1019.3 mb - 0.00 in0.0 mm 0.00 in0.0 mm
08:17 PM 63.1°F17.3°C 57.9°F14.4°C 83% 2.2 mph NNE3.5 kmh NNE 2.2 mph3.5 kmh 30.10 in1019.3 mb - 0.00 in0.0 mm 0.00 in0.0 mm
08:22 PM 63.0°F17.2°C 57.7°F14.3°C 83% 1.8 mph NNE2.9 kmh NNE 4.0 mph6.4 kmh 30.10 in1019.3 mb - 0.00 in0.0 mm 0.00 in0.0 mm
08:27 PM 62.8°F17.1°C 57.6°F14.2°C 83% Calm Calm 0.9 mph1.4 kmh 30.10 in1019.3 mb - 0.00 in0.0 mm 0.00 in0.0 mm
08:32 PM 62.6°F17.0°C 57.4°F14.1°C 83% Calm Calm 0.7 mph1.1 kmh 30.10 in1019.3 mb - 0.00 in0.0 mm 0.00 in0.0 mm
08:37 PM 62.4°F16.9°C 57.2°F14.0°C 83% 0.2 mph N0.3 kmh N 2.5 mph4.0 kmh 30.10 in1019.3 mb - 0.00 in0.0 mm 0.00 in0.0 mm
08:42 PM 62.2°F16.8°C 57.4°F14.1°C 84% Calm Calm -- 30.10 in1019.3 mb - 0.00 in0.0 mm 0.00 in0.0 mm
08:47 PM 62.1°F16.7°C 57.2°F14.0°C 84% Calm Calm -- 30.10 in1019.3 mb - 0.00 in0.0 mm 0.00 in0.0 mm
08:52 PM 62.1°F16.7°C 57.2°F14.0°C 84% Calm Calm -- 30.10 in1019.3 mb - 0.00 in0.0 mm 0.00 in0.0 mm
08:57 PM 61.9°F16.6°C 57.0°F13.9°C 84% 0.2 mph WNW0.3 kmh WNW 1.8 mph2.9 kmh 30.10 in1019.3 mb - 0.00 in0.0 mm 0.00 in0.0 mm
09:02 PM 61.9°F16.6°C 57.0°F13.9°C 84% Calm Calm -- 30.10 in1019.3 mb - 0.00 in0.0 mm 0.00 in0.0 mm
09:07 PM 61.7°F16.5°C 57.2°F14.0°C 85% Calm Calm -- 30.10 in1019.3 mb - 0.00 in0.0 mm 0.00 in0.0 mm
09:12 PM 61.7°F16.5°C 57.6°F14.2°C 86% Calm Calm -- 30.10 in1019.3 mb - 0.00 in0.0 mm 0.00 in0.0 mm
09:17 PM 61.5°F16.4°C 57.0°F13.9°C 85% 0.4 mph ESE0.6 kmh ESE 3.1 mph5.0 kmh 30.10 in1019.3 mb - 0.00 in0.0 mm 0.00 in0.0 mm
09:22 PM 61.3°F16.3°C 56.8°F13.8°C 85% 0.7 mph NE1.1 kmh NE 3.4 mph5.5 kmh 30.10 in1019.3 mb - 0.00 in0.0 mm 0.00 in0.0 mm
09:27 PM 61.2°F16.2°C 56.7°F13.7°C 85% 1.3 mph NNE2.1 kmh NNE 1.3 mph2.1 kmh 30.10 in1019.3 mb - 0.00 in0.0 mm 0.00 in0.0 mm
09:32 PM 61.2°F16.2°C 56.7°F13.7°C 85% 0.2 mph NE0.3 kmh NE 1.8 mph2.9 kmh 30.10 in1019.3 mb - 0.00 in0.0 mm 0.00 in0.0 mm
09:37 PM 61.0°F16.1°C 56.5°F13.6°C 85% 0.7 mph N1.1 kmh N 2.5 mph4.0 kmh 30.10 in1019.3 mb - 0.00 in0.0 mm 0.00 in0.0 mm
09:42 PM 61.0°F16.1°C 56.5°F13.6°C 85% Calm Calm -- 30.10 in1019.3 mb - 0.00 in0.0 mm 0.00 in0.0 mm
09:47 PM 61.0°F16.1°C 56.8°F13.8°C 86% Calm Calm -- 30.10 in1019.3 mb - 0.00 in0.0 mm 0.00 in0.0 mm
09:52 PM 60.8°F16.0°C 56.7°F13.7°C 86% Calm Calm -- 30.10 in1019.3 mb - 0.00 in0.0 mm 0.00 in0.0 mm
09:57 PM 60.8°F16.0°C 56.7°F13.7°C 86% Calm Calm -- 30.10 in1019.3 mb - 0.00 in0.0 mm 0.00 in0.0 mm
10:02 PM 60.8°F16.0°C 56.7°F13.7°C 86% Calm Calm -- 30.10 in1019.3 mb - 0.00 in0.0 mm 0.00 in0.0 mm
10:07 PM 60.8°F16.0°C 56.8°F13.8°C 87% Calm Calm -- 30.10 in1019.3 mb - 0.00 in0.0 mm 0.00 in0.0 mm
10:12 PM 60.6°F15.9°C 56.7°F13.7°C 87% 0.2 mph NNE0.3 kmh NNE 1.6 mph2.6 kmh 30.10 in1019.3 mb - 0.00 in0.0 mm 0.00 in0.0 mm
10:17 PM 60.6°F15.9°C 56.7°F13.7°C 87% Calm Calm 1.1 mph1.8 kmh 30.10 in1019.3 mb - 0.00 in0.0 mm 0.00 in0.0 mm
10:22 PM 60.6°F15.9°C 56.7°F13.7°C 87% 1.1 mph NE1.8 kmh NE 3.6 mph5.8 kmh 30.10 in1019.3 mb - 0.00 in0.0 mm 0.00 in0.0 mm
10:27 PM 60.6°F15.9°C 56.7°F13.7°C 87% Calm Calm -- 30.10 in1019.3 mb - 0.00 in0.0 mm 0.00 in0.0 mm
10:32 PM 60.4°F15.8°C 56.5°F13.6°C 87% Calm Calm -- 30.10 in1019.3 mb - 0.00 in0.0 mm 0.00 in0.0 mm
10:37 PM 60.3°F15.7°C 56.3°F13.5°C 87% Calm Calm -- 30.10 in1019.3 mb - 0.00 in0.0 mm 0.00 in0.0 mm
10:42 PM 59.9°F15.5°C 55.9°F13.3°C 87% Calm Calm -- 30.10 in1019.3 mb - 0.00 in0.0 mm 0.00 in0.0 mm
10:47 PM 59.5°F15.3°C 55.4°F13.0°C 86% Calm Calm -- 30.10 in1019.3 mb - 0.00 in0.0 mm 0.00 in0.0 mm
10:52 PM 59.2°F15.1°C 55.0°F12.8°C 86% Calm Calm -- 30.10 in1019.3 mb - 0.00 in0.0 mm 0.00 in0.0 mm
10:57 PM 58.8°F14.9°C 54.7°F12.6°C 86% Calm Calm -- 30.10 in1019.3 mb - 0.00 in0.0 mm 0.00 in0.0 mm
11:02 PM 58.6°F14.8°C 54.5°F12.5°C 86% Calm Calm -- 30.10 in1019.3 mb - 0.00 in0.0 mm 0.00 in0.0 mm
11:07 PM 58.3°F14.6°C 54.1°F12.3°C 86% Calm Calm -- 30.10 in1019.3 mb - 0.00 in0.0 mm 0.00 in0.0 mm
11:12 PM 58.1°F14.5°C 54.0°F12.2°C 86% Calm Calm -- 30.10 in1019.3 mb - 0.00 in0.0 mm 0.00 in0.0 mm
11:17 PM 57.9°F14.4°C 53.8°F12.1°C 86% Calm Calm -- 30.10 in1019.3 mb - 0.00 in0.0 mm 0.00 in0.0 mm
11:22 PM 57.9°F14.4°C 53.8°F12.1°C 86% Calm Calm -- 30.10 in1019.3 mb - 0.00 in0.0 mm 0.00 in0.0 mm
11:27 PM 57.7°F14.3°C 54.0°F12.2°C 87% Calm Calm -- 30.10 in1019.3 mb - 0.00 in0.0 mm 0.00 in0.0 mm
11:32 PM 57.7°F14.3°C 54.0°F12.2°C 87% Calm Calm -- 30.10 in1019.3 mb - 0.00 in0.0 mm 0.00 in0.0 mm
11:37 PM 57.6°F14.2°C 53.8°F12.1°C 87% Calm Calm -- 30.10 in1019.3 mb - 0.00 in0.0 mm 0.00 in0.0 mm
11:42 PM 57.6°F14.2°C 53.8°F12.1°C 87% Calm Calm -- 30.10 in1019.3 mb - 0.00 in0.0 mm 0.00 in0.0 mm
11:47 PM 57.6°F14.2°C 53.8°F12.1°C 87% Calm Calm -- 30.10 in1019.3 mb - 0.00 in0.0 mm 0.00 in0.0 mm
11:52 PM 57.6°F14.2°C 53.8°F12.1°C 87% Calm Calm -- 30.10 in1019.3 mb - 0.00 in0.0 mm 0.00 in0.0 mm
11:57 PM 57.6°F14.2°C 54.0°F12.2°C 88% Calm Calm -- 30.10 in1019.3 mb - 0.00 in0.0 mm 0.00 in0.0 mm